LGL1300 EDDM-ESGG
Flight info
| Callsign | LGL1300 |
|---|---|
| Flight time | N/A |
| Altitude | 37000 |
| Route | INPUD2N INPUD Y102 UPALA M726 LASGA DCT NEDIK DCT ROKAM L997 RISMA |
| Aircraft | B38M/M-SDE1FGHILORVWXY/HB1 |
Departure
| Time | 2026-05-07 11:09 |
|---|---|
| Airport | Munich Airport (EDDM) |
Arrival
| Time | N/A |
|---|---|
| Airport | Göteborg Landvetter Airport (ESGG) |
| Time | Latitude | Longitude | Altitude | Speed | Heading |
|---|---|---|---|---|---|
| 2026-05-07 10:05 | 48.35587 | 11.79992 | 1475 ft | 0 kts | 264° |
| 2026-05-07 10:53 | 48.35589 | 11.80014 | 1488 ft | 4 kts | 269° |
| 2026-05-07 10:54 | 48.35587 | 11.80049 | 1474 ft | 4 kts | 286° |
| 2026-05-07 10:54 | 48.35576 | 11.80079 | 1488 ft | 4 kts | 320° |
| 2026-05-07 10:54 | 48.35561 | 11.80090 | 1475 ft | 0 kts | 353° |
| 2026-05-07 11:00 | 48.35562 | 11.80090 | 1488 ft | 1 kts | 353° |
| 2026-05-07 11:00 | 48.35577 | 11.80086 | 1488 ft | 4 kts | 350° |
| 2026-05-07 11:00 | 48.35632 | 11.80072 | 1488 ft | 10 kts | 350° |
| 2026-05-07 11:00 | 48.35707 | 11.80078 | 1488 ft | 12 kts | 0° |
| 2026-05-07 11:01 | 48.35781 | 11.80066 | 1488 ft | 11 kts | 352° |
| 2026-05-07 11:01 | 48.35829 | 11.79985 | 1483 ft | 11 kts | 262° |
| 2026-05-07 11:01 | 48.35818 | 11.79864 | 1480 ft | 13 kts | 263° |
| 2026-05-07 11:01 | 48.35808 | 11.79723 | 1482 ft | 14 kts | 264° |
| 2026-05-07 11:02 | 48.35800 | 11.79570 | 1479 ft | 11 kts | 278° |
| 2026-05-07 11:02 | 48.35860 | 11.79519 | 1485 ft | 11 kts | 354° |
| 2026-05-07 11:02 | 48.35925 | 11.79508 | 1479 ft | 10 kts | 353° |
| 2026-05-07 11:02 | 48.35998 | 11.79494 | 1475 ft | 11 kts | 353° |
| 2026-05-07 11:03 | 48.36085 | 11.79479 | 1488 ft | 14 kts | 353° |
| 2026-05-07 11:03 | 48.36172 | 11.79467 | 1488 ft | 10 kts | 2° |
| 2026-05-07 11:03 | 48.36218 | 11.79531 | 1479 ft | 10 kts | 75° |
| 2026-05-07 11:03 | 48.36227 | 11.79645 | 1488 ft | 12 kts | 83° |
| 2026-05-07 11:04 | 48.36238 | 11.79779 | 1481 ft | 14 kts | 83° |
| 2026-05-07 11:04 | 48.36249 | 11.79932 | 1488 ft | 16 kts | 83° |
| 2026-05-07 11:04 | 48.36262 | 11.80105 | 1488 ft | 18 kts | 83° |
| 2026-05-07 11:04 | 48.36277 | 11.80296 | 1478 ft | 19 kts | 83° |
| 2026-05-07 11:05 | 48.36293 | 11.80504 | 1475 ft | 21 kts | 83° |
| 2026-05-07 11:05 | 48.36311 | 11.80730 | 1488 ft | 22 kts | 83° |
| 2026-05-07 11:05 | 48.36329 | 11.80971 | 1488 ft | 24 kts | 83° |
| 2026-05-07 11:05 | 48.36349 | 11.81228 | 1483 ft | 25 kts | 83° |
| 2026-05-07 11:06 | 48.36370 | 11.81499 | 1484 ft | 27 kts | 83° |
| 2026-05-07 11:06 | 48.36393 | 11.81785 | 1477 ft | 27 kts | 83° |
| 2026-05-07 11:06 | 48.36409 | 11.81974 | 1474 ft | 10 kts | 72° |
| 2026-05-07 11:06 | 48.36434 | 11.82004 | 1488 ft | 5 kts | 6° |
| 2026-05-07 11:07 | 48.36476 | 11.81998 | 1488 ft | 7 kts | 352° |
| 2026-05-07 11:07 | 48.36534 | 11.81987 | 1488 ft | 10 kts | 353° |
| 2026-05-07 11:07 | 48.36616 | 11.81974 | 1479 ft | 13 kts | 353° |
| 2026-05-07 11:07 | 48.36670 | 11.81952 | 1478 ft | 5 kts | 301° |
| 2026-05-07 11:08 | 48.36671 | 11.81890 | 1480 ft | 9 kts | 264° |
| 2026-05-07 11:08 | 48.36649 | 11.81587 | 1488 ft | 60 kts | 263° |
| 2026-05-07 11:08 | 48.36578 | 11.80647 | 1479 ft | 118 kts | 264° |
| 2026-05-07 11:08 | 48.36464 | 11.79174 | 1511 ft | 160 kts | 264° |
| 2026-05-07 11:09 | 48.36321 | 11.77459 | 1953 ft | 169 kts | 263° |
| 2026-05-07 11:09 | 48.36168 | 11.75643 | 2455 ft | 179 kts | 264° |
| 2026-05-07 11:09 | 48.36034 | 11.73793 | 3144 ft | 179 kts | 266° |
| 2026-05-07 11:09 | 48.35922 | 11.71874 | 3644 ft | 192 kts | 265° |
| 2026-05-07 11:10 | 48.35777 | 11.69740 | 3951 ft | 218 kts | 265° |
| 2026-05-07 11:10 | 48.35990 | 11.67397 | 4339 ft | 240 kts | 295° |
| 2026-05-07 11:10 | 48.37190 | 11.65553 | 4839 ft | 261 kts | 332° |
| 2026-05-07 11:10 | 48.38969 | 11.64961 | 5715 ft | 265 kts | 349° |
| 2026-05-07 11:11 | 48.40812 | 11.64492 | 6412 ft | 271 kts | 345° |
| 2026-05-07 11:11 | 48.42667 | 11.63963 | 7212 ft | 273 kts | 346° |
| 2026-05-07 11:11 | 48.44554 | 11.63417 | 7891 ft | 280 kts | 346° |
| 2026-05-07 11:11 | 48.46447 | 11.62702 | 8602 ft | 282 kts | 336° |
| 2026-05-07 11:12 | 48.48297 | 11.61634 | 9299 ft | 288 kts | 337° |
| 2026-05-07 11:12 | 48.50233 | 11.60554 | 9700 ft | 305 kts | 338° |
| 2026-05-07 11:12 | 48.52283 | 11.59435 | 9978 ft | 323 kts | 338° |
| 2026-05-07 11:12 | 48.54445 | 11.58271 | 10456 ft | 331 kts | 338° |
| 2026-05-07 11:13 | 48.56608 | 11.57113 | 11327 ft | 330 kts | 338° |
| 2026-05-07 11:13 | 48.58786 | 11.55949 | 12035 ft | 334 kts | 337° |
| 2026-05-07 11:13 | 48.60984 | 11.54778 | 12803 ft | 337 kts | 337° |
| 2026-05-07 11:13 | 48.63214 | 11.53589 | 13528 ft | 342 kts | 337° |
| 2026-05-07 11:14 | 48.65466 | 11.52387 | 14238 ft | 346 kts | 337° |
| 2026-05-07 11:14 | 48.67716 | 11.51186 | 14958 ft | 350 kts | 337° |
| 2026-05-07 11:14 | 48.70026 | 11.49950 | 15664 ft | 354 kts | 338° |
| 2026-05-07 11:14 | 48.72364 | 11.48699 | 16350 ft | 358 kts | 338° |
| 2026-05-07 11:15 | 48.74728 | 11.47432 | 17012 ft | 363 kts | 338° |
| 2026-05-07 11:15 | 48.77122 | 11.46148 | 17639 ft | 367 kts | 338° |
| 2026-05-07 11:15 | 48.79542 | 11.44849 | 18264 ft | 371 kts | 338° |
| 2026-05-07 11:15 | 48.81985 | 11.43536 | 18879 ft | 374 kts | 338° |
| 2026-05-07 11:16 | 48.84447 | 11.42211 | 19466 ft | 377 kts | 338° |
| 2026-05-07 11:16 | 48.86933 | 11.40872 | 20038 ft | 381 kts | 338° |
| 2026-05-07 11:16 | 48.89442 | 11.39520 | 20597 ft | 384 kts | 338° |
| 2026-05-07 11:16 | 48.91970 | 11.38156 | 21147 ft | 387 kts | 338° |
| 2026-05-07 11:17 | 48.94515 | 11.36780 | 21699 ft | 390 kts | 338° |
| 2026-05-07 11:17 | 48.97081 | 11.35393 | 22231 ft | 393 kts | 338° |
| 2026-05-07 11:17 | 48.99667 | 11.33993 | 22744 ft | 396 kts | 338° |
| 2026-05-07 11:17 | 49.02269 | 11.32583 | 23251 ft | 399 kts | 338° |
| 2026-05-07 11:18 | 49.04890 | 11.31160 | 23768 ft | 402 kts | 338° |
| 2026-05-07 11:18 | 49.07533 | 11.29725 | 24263 ft | 404 kts | 338° |
| 2026-05-07 11:18 | 49.10194 | 11.28277 | 24732 ft | 408 kts | 338° |
| 2026-05-07 11:18 | 49.12884 | 11.26812 | 25171 ft | 412 kts | 338° |
| 2026-05-07 11:19 | 49.15590 | 11.25336 | 25624 ft | 415 kts | 338° |
| 2026-05-07 11:19 | 49.18322 | 11.23845 | 26069 ft | 418 kts | 338° |
| 2026-05-07 11:19 | 49.21110 | 11.22507 | 26455 ft | 425 kts | 347° |
| 2026-05-07 11:19 | 49.24078 | 11.22252 | 26916 ft | 429 kts | 359° |
| 2026-05-07 11:20 | 49.27076 | 11.22246 | 27244 ft | 434 kts | 358° |
| 2026-05-07 11:20 | 49.30113 | 11.22242 | 27612 ft | 437 kts | 358° |
| 2026-05-07 11:20 | 49.33170 | 11.22253 | 28001 ft | 440 kts | 358° |
| 2026-05-07 11:20 | 49.36239 | 11.22271 | 28360 ft | 443 kts | 358° |
| 2026-05-07 11:21 | 49.39336 | 11.22292 | 28718 ft | 447 kts | 358° |
| 2026-05-07 11:21 | 49.42455 | 11.22316 | 29041 ft | 450 kts | 358° |
| 2026-05-07 11:21 | 49.45596 | 11.22340 | 29382 ft | 453 kts | 358° |
| 2026-05-07 11:21 | 49.48751 | 11.22366 | 29702 ft | 456 kts | 358° |
| 2026-05-07 11:22 | 49.51941 | 11.22392 | 30027 ft | 459 kts | 358° |